sensor_id;sensor_type;location;lat;lon;timestamp;pressure;altitude;pressure_sealevel;temperature;humidity
35307;BME280;21420;52.196;21.416;2024-01-30T00:00:33;102069.56;;;-0.52;71.00
35307;BME280;21420;52.196;21.416;2024-01-30T00:03:00;102068.86;;;-0.53;70.99
35307;BME280;21420;52.196;21.416;2024-01-30T00:05:27;102063.86;;;-0.55;71.15
35307;BME280;21420;52.196;21.416;2024-01-30T00:07:53;102063.20;;;-0.55;71.06
35307;BME280;21420;52.196;21.416;2024-01-30T00:10:20;102062.83;;;-0.56;71.17
35307;BME280;21420;52.196;21.416;2024-01-30T00:12:47;102058.82;;;-0.57;71.19
35307;BME280;21420;52.196;21.416;2024-01-30T00:15:13;102053.13;;;-0.59;71.22
35307;BME280;21420;52.196;21.416;2024-01-30T00:17:41;102050.83;;;-0.60;71.19
35307;BME280;21420;52.196;21.416;2024-01-30T00:20:08;102046.28;;;-0.61;71.21
35307;BME280;21420;52.196;21.416;2024-01-30T00:22:36;102039.04;;;-0.62;71.14
35307;BME280;21420;52.196;21.416;2024-01-30T00:25:03;102035.58;;;-0.64;71.28
35307;BME280;21420;52.196;21.416;2024-01-30T00:27:30;102030.21;;;-0.67;71.25
35307;BME280;21420;52.196;21.416;2024-01-30T00:29:57;102027.13;;;-0.69;71.33
35307;BME280;21420;52.196;21.416;2024-01-30T00:32:23;102024.27;;;-0.69;71.24
35307;BME280;21420;52.196;21.416;2024-01-30T00:34:50;102021.56;;;-0.70;71.31
35307;BME280;21420;52.196;21.416;2024-01-30T00:37:17;102019.67;;;-0.72;71.38
35307;BME280;21420;52.196;21.416;2024-01-30T00:39:44;102017.86;;;-0.73;71.31
35307;BME280;21420;52.196;21.416;2024-01-30T00:42:10;102020.36;;;-0.74;71.35
35307;BME280;21420;52.196;21.416;2024-01-30T00:44:37;102018.95;;;-0.75;71.42
35307;BME280;21420;52.196;21.416;2024-01-30T00:47:05;102012.34;;;-0.75;71.43
35307;BME280;21420;52.196;21.416;2024-01-30T00:49:32;102013.54;;;-0.76;71.33
35307;BME280;21420;52.196;21.416;2024-01-30T00:52:00;102010.52;;;-0.76;71.35
35307;BME280;21420;52.196;21.416;2024-01-30T00:54:27;102010.44;;;-0.76;71.53
35307;BME280;21420;52.196;21.416;2024-01-30T00:56:53;102011.08;;;-0.78;71.45
35307;BME280;21420;52.196;21.416;2024-01-30T00:59:20;102011.79;;;-0.80;71.52
35307;BME280;21420;52.196;21.416;2024-01-30T01:01:47;102009.65;;;-0.81;71.51
35307;BME280;21420;52.196;21.416;2024-01-30T01:04:14;102008.34;;;-0.83;71.49
35307;BME280;21420;52.196;21.416;2024-01-30T01:06:41;102005.91;;;-0.85;71.56
35307;BME280;21420;52.196;21.416;2024-01-30T01:09:11;102009.27;;;-0.86;71.52
35307;BME280;21420;52.196;21.416;2024-01-30T01:11:39;102011.27;;;-0.86;71.51
35307;BME280;21420;52.196;21.416;2024-01-30T01:14:05;102011.82;;;-0.87;71.67
35307;BME280;21420;52.196;21.416;2024-01-30T01:16:33;102011.80;;;-0.87;71.61
35307;BME280;21420;52.196;21.416;2024-01-30T01:19:00;102010.98;;;-0.88;71.49
35307;BME280;21420;52.196;21.416;2024-01-30T01:21:28;102010.16;;;-0.89;71.60
35307;BME280;21420;52.196;21.416;2024-01-30T01:23:54;102007.70;;;-0.90;71.73
35307;BME280;21420;52.196;21.416;2024-01-30T01:26:21;102005.26;;;-0.90;71.63
35307;BME280;21420;52.196;21.416;2024-01-30T01:28:48;102003.36;;;-0.91;71.70
35307;BME280;21420;52.196;21.416;2024-01-30T01:31:15;102001.25;;;-0.91;71.79
35307;BME280;21420;52.196;21.416;2024-01-30T01:33:41;102003.23;;;-0.91;71.70
35307;BME280;21420;52.196;21.416;2024-01-30T01:36:08;102001.05;;;-0.92;71.70
35307;BME280;21420;52.196;21.416;2024-01-30T01:38:35;102001.48;;;-0.94;71.68
35307;BME280;21420;52.196;21.416;2024-01-30T01:41:02;101999.98;;;-0.95;71.80
35307;BME280;21420;52.196;21.416;2024-01-30T01:43:28;101998.47;;;-0.96;71.81
35307;BME280;21420;52.196;21.416;2024-01-30T01:45:56;101997.86;;;-0.98;71.74
35307;BME280;21420;52.196;21.416;2024-01-30T01:48:24;101995.86;;;-1.00;71.75
35307;BME280;21420;52.196;21.416;2024-01-30T01:50:51;101994.20;;;-1.01;71.80
35307;BME280;21420;52.196;21.416;2024-01-30T01:53:19;101996.02;;;-1.02;71.86
35307;BME280;21420;52.196;21.416;2024-01-30T01:55:46;101997.04;;;-1.02;71.88
35307;BME280;21420;52.196;21.416;2024-01-30T01:58:14;101992.08;;;-1.02;71.81
35307;BME280;21420;52.196;21.416;2024-01-30T02:00:41;101987.23;;;-1.02;71.88
35307;BME280;21420;52.196;21.416;2024-01-30T02:03:10;101982.92;;;-1.02;71.91
35307;BME280;21420;52.196;21.416;2024-01-30T02:05:38;101982.65;;;-1.03;71.91
35307;BME280;21420;52.196;21.416;2024-01-30T02:08:06;101981.91;;;-1.04;71.85
35307;BME280;21420;52.196;21.416;2024-01-30T02:10:33;101984.10;;;-1.04;71.93
35307;BME280;21420;52.196;21.416;2024-01-30T02:13:01;101981.92;;;-1.06;71.94
35307;BME280;21420;52.196;21.416;2024-01-30T02:15:28;101976.38;;;-1.06;72.02
35307;BME280;21420;52.196;21.416;2024-01-30T02:17:55;101977.61;;;-1.04;72.02
35307;BME280;21420;52.196;21.416;2024-01-30T02:20:24;101974.80;;;-1.03;72.03
35307;BME280;21420;52.196;21.416;2024-01-30T02:22:54;101976.20;;;-1.03;72.15
35307;BME280;21420;52.196;21.416;2024-01-30T02:25:30;101978.95;;;-1.02;72.05
35307;BME280;21420;52.196;21.416;2024-01-30T02:27:57;101982.06;;;-1.02;72.09
35307;BME280;21420;52.196;21.416;2024-01-30T02:30:24;101980.34;;;-1.03;72.00
35307;BME280;21420;52.196;21.416;2024-01-30T02:32:50;101976.20;;;-1.03;72.10
35307;BME280;21420;52.196;21.416;2024-01-30T02:35:17;101972.04;;;-1.01;72.16
35307;BME280;21420;52.196;21.416;2024-01-30T02:37:44;101973.64;;;-1.00;72.13
35307;BME280;21420;52.196;21.416;2024-01-30T02:40:11;101974.06;;;-1.00;72.10
35307;BME280;21420;52.196;21.416;2024-01-30T02:42:39;101971.48;;;-1.02;72.03
35307;BME280;21420;52.196;21.416;2024-01-30T02:45:06;101970.03;;;-1.04;72.21
35307;BME280;21420;52.196;21.416;2024-01-30T02:47:33;101970.33;;;-1.03;72.33
35307;BME280;21420;52.196;21.416;2024-01-30T02:49:59;101968.99;;;-1.02;72.28
35307;BME280;21420;52.196;21.416;2024-01-30T02:52:26;101968.71;;;-1.03;72.16
35307;BME280;21420;52.196;21.416;2024-01-30T02:54:53;101970.83;;;-1.03;72.22
35307;BME280;21420;52.196;21.416;2024-01-30T02:57:20;101973.82;;;-1.01;72.28
35307;BME280;21420;52.196;21.416;2024-01-30T02:59:46;101970.79;;;-1.00;72.24
35307;BME280;21420;52.196;21.416;2024-01-30T03:02:13;101972.36;;;-1.00;72.38
35307;BME280;21420;52.196;21.416;2024-01-30T03:04:43;101971.09;;;-1.01;72.29
35307;BME280;21420;52.196;21.416;2024-01-30T03:07:10;101970.17;;;-1.05;72.14
35307;BME280;21420;52.196;21.416;2024-01-30T03:09:37;101969.73;;;-1.07;72.16
35307;BME280;21420;52.196;21.416;2024-01-30T03:12:04;101972.76;;;-1.08;72.33
35307;BME280;21420;52.196;21.416;2024-01-30T03:14:35;101969.75;;;-1.09;72.29
35307;BME280;21420;52.196;21.416;2024-01-30T03:17:07;101962.89;;;-1.10;72.25
35307;BME280;21420;52.196;21.416;2024-01-30T03:19:34;101960.58;;;-1.10;72.22
35307;BME280;21420;52.196;21.416;2024-01-30T03:22:01;101962.65;;;-1.11;72.37
35307;BME280;21420;52.196;21.416;2024-01-30T03:24:27;101955.88;;;-1.14;72.20
35307;BME280;21420;52.196;21.416;2024-01-30T03:26:54;101957.80;;;-1.16;72.17
35307;BME280;21420;52.196;21.416;2024-01-30T03:29:20;101958.55;;;-1.17;72.32
35307;BME280;21420;52.196;21.416;2024-01-30T03:31:47;101960.67;;;-1.18;72.33
35307;BME280;21420;52.196;21.416;2024-01-30T03:34:14;101959.25;;;-1.21;72.28
35307;BME280;21420;52.196;21.416;2024-01-30T03:36:41;101956.90;;;-1.21;72.38
35307;BME280;21420;52.196;21.416;2024-01-30T03:39:08;101953.70;;;-1.20;72.44
35307;BME280;21420;52.196;21.416;2024-01-30T03:41:34;101953.38;;;-1.20;72.42
35307;BME280;21420;52.196;21.416;2024-01-30T03:44:03;101948.02;;;-1.21;72.50
35307;BME280;21420;52.196;21.416;2024-01-30T03:46:30;101945.15;;;-1.21;72.57
35307;BME280;21420;52.196;21.416;2024-01-30T03:48:57;101950.99;;;-1.22;72.57
35307;BME280;21420;52.196;21.416;2024-01-30T03:51:23;101950.08;;;-1.22;72.49
35307;BME280;21420;52.196;21.416;2024-01-30T03:53:50;101950.47;;;-1.20;72.58
35307;BME280;21420;52.196;21.416;2024-01-30T03:56:17;101953.14;;;-1.17;72.71
35307;BME280;21420;52.196;21.416;2024-01-30T03:58:43;101955.08;;;-1.13;72.76
35307;BME280;21420;52.196;21.416;2024-01-30T04:01:14;101955.95;;;-1.10;72.71
35307;BME280;21420;52.196;21.416;2024-01-30T04:03:41;101952.57;;;-1.08;72.81
35307;BME280;21420;52.196;21.416;2024-01-30T04:06:10;101957.08;;;-1.07;72.70
35307;BME280;21420;52.196;21.416;2024-01-30T04:08:37;101957.80;;;-1.06;72.71
35307;BME280;21420;52.196;21.416;2024-01-30T04:11:05;101959.75;;;-1.06;72.71
35307;BME280;21420;52.196;21.416;2024-01-30T04:13:33;101960.95;;;-1.06;72.66
35307;BME280;21420;52.196;21.416;2024-01-30T04:16:00;101959.50;;;-1.05;72.79
35307;BME280;21420;52.196;21.416;2024-01-30T04:18:29;101958.27;;;-1.06;72.65
35307;BME280;21420;52.196;21.416;2024-01-30T04:20:56;101961.11;;;-1.07;72.60
35307;BME280;21420;52.196;21.416;2024-01-30T04:23:22;101964.02;;;-1.08;72.69
35307;BME280;21420;52.196;21.416;2024-01-30T04:25:49;101967.83;;;-1.11;72.70
35307;BME280;21420;52.196;21.416;2024-01-30T04:28:16;101965.77;;;-1.13;72.70
35307;BME280;21420;52.196;21.416;2024-01-30T04:30:42;101965.83;;;-1.15;72.55
35307;BME280;21420;52.196;21.416;2024-01-30T04:33:10;101963.19;;;-1.17;72.67
35307;BME280;21420;52.196;21.416;2024-01-30T04:35:37;101965.77;;;-1.19;72.64
35307;BME280;21420;52.196;21.416;2024-01-30T04:38:03;101965.54;;;-1.21;72.53
35307;BME280;21420;52.196;21.416;2024-01-30T04:40:30;101959.98;;;-1.24;72.62
35307;BME280;21420;52.196;21.416;2024-01-30T04:42:57;101958.67;;;-1.26;72.63
35307;BME280;21420;52.196;21.416;2024-01-30T04:45:23;101958.34;;;-1.28;72.65
35307;BME280;21420;52.196;21.416;2024-01-30T04:47:50;101954.48;;;-1.31;72.51
35307;BME280;21420;52.196;21.416;2024-01-30T04:50:17;101952.95;;;-1.35;72.43
35307;BME280;21420;52.196;21.416;2024-01-30T04:52:45;101956.52;;;-1.39;72.53
35307;BME280;21420;52.196;21.416;2024-01-30T04:55:11;101953.61;;;-1.42;72.57
35307;BME280;21420;52.196;21.416;2024-01-30T04:57:38;101953.06;;;-1.46;72.57
35307;BME280;21420;52.196;21.416;2024-01-30T05:00:06;101957.41;;;-1.48;72.55
35307;BME280;21420;52.196;21.416;2024-01-30T05:02:32;101957.89;;;-1.50;72.63
35307;BME280;21420;52.196;21.416;2024-01-30T05:04:59;101960.20;;;-1.52;72.68
35307;BME280;21420;52.196;21.416;2024-01-30T05:07:26;101960.43;;;-1.55;72.72
35307;BME280;21420;52.196;21.416;2024-01-30T05:09:53;101960.17;;;-1.58;72.70
35307;BME280;21420;52.196;21.416;2024-01-30T05:12:24;101960.55;;;-1.60;72.75
35307;BME280;21420;52.196;21.416;2024-01-30T05:14:51;101961.42;;;-1.60;72.74
35307;BME280;21420;52.196;21.416;2024-01-30T05:17:18;101958.49;;;-1.61;72.66
35307;BME280;21420;52.196;21.416;2024-01-30T05:19:44;101957.96;;;-1.61;72.74
35307;BME280;21420;52.196;21.416;2024-01-30T05:22:11;101956.61;;;-1.57;72.82
35307;BME280;21420;52.196;21.416;2024-01-30T05:24:42;101955.35;;;-1.55;72.85
35307;BME280;21420;52.196;21.416;2024-01-30T05:27:10;101950.66;;;-1.52;72.89
35307;BME280;21420;52.196;21.416;2024-01-30T05:29:36;101952.64;;;-1.50;72.94
35307;BME280;21420;52.196;21.416;2024-01-30T05:32:03;101954.21;;;-1.49;72.88
35307;BME280;21420;52.196;21.416;2024-01-30T05:34:32;101951.29;;;-1.47;72.86
35307;BME280;21420;52.196;21.416;2024-01-30T05:36:59;101952.52;;;-1.46;72.80
35307;BME280;21420;52.196;21.416;2024-01-30T05:39:26;101950.83;;;-1.45;72.88
35307;BME280;21420;52.196;21.416;2024-01-30T05:41:52;101951.50;;;-1.42;72.85
35307;BME280;21420;52.196;21.416;2024-01-30T05:44:19;101953.56;;;-1.40;72.86
35307;BME280;21420;52.196;21.416;2024-01-30T05:46:45;101956.08;;;-1.38;72.90
35307;BME280;21420;52.196;21.416;2024-01-30T05:49:12;101957.44;;;-1.37;72.84
35307;BME280;21420;52.196;21.416;2024-01-30T05:51:39;101959.40;;;-1.36;72.90
35307;BME280;21420;52.196;21.416;2024-01-30T05:54:05;101958.10;;;-1.34;72.96
35307;BME280;21420;52.196;21.416;2024-01-30T05:56:32;101954.70;;;-1.33;72.87
35307;BME280;21420;52.196;21.416;2024-01-30T05:58:59;101956.31;;;-1.32;72.96
35307;BME280;21420;52.196;21.416;2024-01-30T06:01:25;101958.27;;;-1.33;72.96
35307;BME280;21420;52.196;21.416;2024-01-30T06:03:52;101960.92;;;-1.34;72.88
35307;BME280;21420;52.196;21.416;2024-01-30T06:06:19;101960.00;;;-1.33;72.94
35307;BME280;21420;52.196;21.416;2024-01-30T06:08:45;101959.70;;;-1.32;72.98
35307;BME280;21420;52.196;21.416;2024-01-30T06:11:12;101960.66;;;-1.32;72.92
35307;BME280;21420;52.196;21.416;2024-01-30T06:13:39;101959.65;;;-1.32;72.94
35307;BME280;21420;52.196;21.416;2024-01-30T06:16:09;101959.60;;;-1.30;72.89
35307;BME280;21420;52.196;21.416;2024-01-30T06:18:38;101955.83;;;-1.29;73.01
35307;BME280;21420;52.196;21.416;2024-01-30T06:21:05;101956.73;;;-1.26;73.00
35307;BME280;21420;52.196;21.416;2024-01-30T06:23:31;101960.59;;;-1.23;72.98
35307;BME280;21420;52.196;21.416;2024-01-30T06:25:58;101962.44;;;-1.21;73.05
35307;BME280;21420;52.196;21.416;2024-01-30T06:28:25;101961.84;;;-1.19;73.03
35307;BME280;21420;52.196;21.416;2024-01-30T06:30:51;101961.92;;;-1.18;72.96
35307;BME280;21420;52.196;21.416;2024-01-30T06:33:18;101966.51;;;-1.18;73.05
35307;BME280;21420;52.196;21.416;2024-01-30T06:35:45;101965.25;;;-1.17;73.12
35307;BME280;21420;52.196;21.416;2024-01-30T06:38:12;101964.16;;;-1.14;73.13
35307;BME280;21420;52.196;21.416;2024-01-30T06:40:39;101962.91;;;-1.07;73.23
35307;BME280;21420;52.196;21.416;2024-01-30T06:43:06;101957.42;;;-0.94;73.34
35307;BME280;21420;52.196;21.416;2024-01-30T06:45:34;101952.30;;;-0.82;73.15
35307;BME280;21420;52.196;21.416;2024-01-30T06:48:01;101954.02;;;-0.74;73.16
35307;BME280;21420;52.196;21.416;2024-01-30T06:50:28;101952.60;;;-0.55;73.41
35307;BME280;21420;52.196;21.416;2024-01-30T06:52:55;101951.55;;;-0.30;73.51
35307;BME280;21420;52.196;21.416;2024-01-30T06:55:21;101952.30;;;-0.17;73.33
35307;BME280;21420;52.196;21.416;2024-01-30T06:57:48;101954.05;;;-0.07;73.40
35307;BME280;21420;52.196;21.416;2024-01-30T07:00:17;101954.34;;;0.06;73.39
35307;BME280;21420;52.196;21.416;2024-01-30T07:02:46;101955.45;;;0.28;73.50
35307;BME280;21420;52.196;21.416;2024-01-30T07:05:13;101962.14;;;0.45;73.59
35307;BME280;21420;52.196;21.416;2024-01-30T07:07:41;101966.27;;;0.55;73.51
35307;BME280;21420;52.196;21.416;2024-01-30T07:10:08;101968.15;;;0.65;73.45
35307;BME280;21420;52.196;21.416;2024-01-30T07:12:34;101969.67;;;0.87;73.61
35307;BME280;21420;52.196;21.416;2024-01-30T07:15:01;101970.29;;;1.24;73.83
35307;BME280;21420;52.196;21.416;2024-01-30T07:17:29;101969.84;;;1.58;74.01
35307;BME280;21420;52.196;21.416;2024-01-30T07:19:56;101973.02;;;1.83;73.87
35307;BME280;21420;52.196;21.416;2024-01-30T07:22:23;101969.58;;;2.22;74.14
35307;BME280;21420;52.196;21.416;2024-01-30T07:24:50;101965.45;;;2.89;74.51
35307;BME280;21420;52.196;21.416;2024-01-30T07:27:18;101964.51;;;3.77;75.07
35307;BME280;21420;52.196;21.416;2024-01-30T07:29:45;101960.83;;;4.68;75.37
35307;BME280;21420;52.196;21.416;2024-01-30T07:32:12;101959.89;;;5.67;75.59
35307;BME280;21420;52.196;21.416;2024-01-30T07:34:39;101958.24;;;6.60;75.56
35307;BME280;21420;52.196;21.416;2024-01-30T07:37:18;101955.77;;;7.50;75.50
35307;BME280;21420;52.196;21.416;2024-01-30T07:39:47;101958.00;;;8.23;75.22
35307;BME280;21420;52.196;21.416;2024-01-30T07:42:13;101958.96;;;8.83;74.86
35307;BME280;21420;52.196;21.416;2024-01-30T07:44:40;101959.84;;;9.46;74.59
35307;BME280;21420;52.196;21.416;2024-01-30T07:47:07;101958.90;;;9.96;74.06
35307;BME280;21420;52.196;21.416;2024-01-30T07:49:34;101958.30;;;10.55;73.94
35307;BME280;21420;52.196;21.416;2024-01-30T07:52:01;101957.66;;;11.02;73.27
35307;BME280;21420;52.196;21.416;2024-01-30T07:54:28;101959.02;;;11.27;72.61
35307;BME280;21420;52.196;21.416;2024-01-30T07:56:54;101957.39;;;11.50;72.24
35307;BME280;21420;52.196;21.416;2024-01-30T07:59:21;101963.52;;;11.90;72.46
35307;BME280;21420;52.196;21.416;2024-01-30T08:01:51;101957.00;;;12.19;71.52
35307;BME280;21420;52.196;21.416;2024-01-30T08:04:18;101954.31;;;12.43;71.34
35307;BME280;21420;52.196;21.416;2024-01-30T08:06:45;101953.90;;;12.74;71.17
35307;BME280;21420;52.196;21.416;2024-01-30T08:09:12;101954.85;;;13.10;71.22
35307;BME280;21420;52.196;21.416;2024-01-30T08:11:38;101958.02;;;13.35;70.52
35307;BME280;21420;52.196;21.416;2024-01-30T08:14:05;101958.66;;;13.66;70.78
35307;BME280;21420;52.196;21.416;2024-01-30T08:16:32;101957.59;;;13.88;70.05
35307;BME280;21420;52.196;21.416;2024-01-30T08:18:58;101949.45;;;13.84;69.14
35307;BME280;21420;52.196;21.416;2024-01-30T08:21:25;101953.19;;;14.01;69.29
35307;BME280;21420;52.196;21.416;2024-01-30T08:23:52;101951.23;;;14.06;68.52
35307;BME280;21420;52.196;21.416;2024-01-30T08:26:19;101951.32;;;14.22;68.61
35307;BME280;21420;52.196;21.416;2024-01-30T08:28:45;101950.82;;;14.62;69.16
35307;BME280;21420;52.196;21.416;2024-01-30T08:31:12;101947.05;;;14.98;68.99
35307;BME280;21420;52.196;21.416;2024-01-30T08:33:39;101945.48;;;15.34;68.92
35307;BME280;21420;52.196;21.416;2024-01-30T08:36:08;101947.32;;;15.75;68.63
35307;BME280;21420;52.196;21.416;2024-01-30T08:38:35;101940.91;;;15.94;68.14
35307;BME280;21420;52.196;21.416;2024-01-30T08:41:01;101939.91;;;16.16;67.85
35307;BME280;21420;52.196;21.416;2024-01-30T08:43:29;101943.98;;;16.18;67.02
35307;BME280;21420;52.196;21.416;2024-01-30T08:46:01;101939.50;;;16.25;66.92
35307;BME280;21420;52.196;21.416;2024-01-30T08:48:28;101934.64;;;16.54;67.18
35307;BME280;21420;52.196;21.416;2024-01-30T08:50:55;101936.86;;;16.93;67.26
35307;BME280;21420;52.196;21.416;2024-01-30T08:53:22;101936.66;;;17.11;66.50
35307;BME280;21420;52.196;21.416;2024-01-30T08:55:49;101938.00;;;17.03;66.06
35307;BME280;21420;52.196;21.416;2024-01-30T08:58:16;101935.37;;;17.14;66.18
35307;BME280;21420;52.196;21.416;2024-01-30T09:00:44;101937.05;;;17.39;66.27
35307;BME280;21420;52.196;21.416;2024-01-30T09:03:11;101938.80;;;17.46;65.57
35307;BME280;21420;52.196;21.416;2024-01-30T09:05:38;101941.23;;;17.41;65.10
35307;BME280;21420;52.196;21.416;2024-01-30T09:08:05;101936.33;;;17.29;64.87
35307;BME280;21420;52.196;21.416;2024-01-30T09:10:32;101938.91;;;17.49;65.45
35307;BME280;21420;52.196;21.416;2024-01-30T09:12:58;101943.44;;;17.67;64.74
35307;BME280;21420;52.196;21.416;2024-01-30T09:15:25;101938.57;;;17.51;64.15
35307;BME280;21420;52.196;21.416;2024-01-30T09:17:52;101938.34;;;17.68;64.67
35307;BME280;21420;52.196;21.416;2024-01-30T09:20:19;101940.83;;;17.89;64.52
35307;BME280;21420;52.196;21.416;2024-01-30T09:22:47;101932.31;;;18.06;64.67
35307;BME280;21420;52.196;21.416;2024-01-30T09:25:14;101932.80;;;18.25;64.40
35307;BME280;21420;52.196;21.416;2024-01-30T09:27:40;101934.48;;;18.42;64.14
35307;BME280;21420;52.196;21.416;2024-01-30T09:30:08;101933.83;;;18.46;64.02
35307;BME280;21420;52.196;21.416;2024-01-30T09:32:35;101932.58;;;18.52;63.89
35307;BME280;21420;52.196;21.416;2024-01-30T09:35:01;101927.30;;;18.68;63.68
35307;BME280;21420;52.196;21.416;2024-01-30T09:37:28;101928.73;;;18.59;63.07
35307;BME280;21420;52.196;21.416;2024-01-30T09:39:55;101925.45;;;18.39;62.72
35307;BME280;21420;52.196;21.416;2024-01-30T09:42:34;101925.22;;;18.47;63.13
35307;BME280;21420;52.196;21.416;2024-01-30T09:45:06;101924.65;;;18.66;63.34
35307;BME280;21420;52.196;21.416;2024-01-30T09:47:44;101923.00;;;18.95;63.39
35307;BME280;21420;52.196;21.416;2024-01-30T09:50:13;101919.35;;;18.93;62.49
35307;BME280;21420;52.196;21.416;2024-01-30T09:52:40;101921.23;;;18.63;61.92
35307;BME280;21420;52.196;21.416;2024-01-30T09:55:08;101918.33;;;18.47;62.07
35307;BME280;21420;52.196;21.416;2024-01-30T09:57:35;101913.23;;;17.66;61.35
35307;BME280;21420;52.196;21.416;2024-01-30T10:00:06;101913.92;;;16.27;60.72
35307;BME280;21420;52.196;21.416;2024-01-30T10:02:39;101909.79;;;14.81;60.55
35307;BME280;21420;52.196;21.416;2024-01-30T10:05:08;101914.38;;;13.76;60.89
35307;BME280;21420;52.196;21.416;2024-01-30T10:07:35;101902.67;;;12.91;60.93
35307;BME280;21420;52.196;21.416;2024-01-30T10:10:02;101896.52;;;12.71;61.84
35307;BME280;21420;52.196;21.416;2024-01-30T10:12:29;101899.36;;;13.45;62.76
35307;BME280;21420;52.196;21.416;2024-01-30T10:14:56;101897.21;;;14.40;63.36
35307;BME280;21420;52.196;21.416;2024-01-30T10:17:25;101893.88;;;15.01;63.04
35307;BME280;21420;52.196;21.416;2024-01-30T10:19:59;101887.75;;;15.67;63.54
35307;BME280;21420;52.196;21.416;2024-01-30T10:22:28;101887.95;;;16.00;63.09
35307;BME280;21420;52.196;21.416;2024-01-30T10:24:55;101885.75;;;15.22;61.68
35307;BME280;21420;52.196;21.416;2024-01-30T10:27:28;101885.02;;;14.78;61.98
35307;BME280;21420;52.196;21.416;2024-01-30T10:29:56;101879.00;;;15.42;62.73
35307;BME280;21420;52.196;21.416;2024-01-30T10:32:23;101875.69;;;16.08;62.95
35307;BME280;21420;52.196;21.416;2024-01-30T10:34:50;101872.75;;;16.80;63.19
35307;BME280;21420;52.196;21.416;2024-01-30T10:37:18;101870.67;;;17.12;62.79
35307;BME280;21420;52.196;21.416;2024-01-30T10:39:46;101868.08;;;17.24;62.04
35307;BME280;21420;52.196;21.416;2024-01-30T10:42:19;101862.14;;;17.31;61.73
35307;BME280;21420;52.196;21.416;2024-01-30T10:45:07;101856.38;;;17.59;62.29
35307;BME280;21420;52.196;21.416;2024-01-30T10:47:36;101857.90;;;18.04;62.43
35307;BME280;21420;52.196;21.416;2024-01-30T10:50:04;101864.77;;;18.06;61.57
35307;BME280;21420;52.196;21.416;2024-01-30T10:52:32;101859.63;;;18.03;61.47
35307;BME280;21420;52.196;21.416;2024-01-30T10:54:59;101857.58;;;18.08;61.53
35307;BME280;21420;52.196;21.416;2024-01-30T10:57:27;101857.97;;;17.98;60.84
35307;BME280;21420;52.196;21.416;2024-01-30T11:00:00;101855.19;;;17.97;61.11
35307;BME280;21420;52.196;21.416;2024-01-30T11:02:42;101850.58;;;18.10;61.09
35307;BME280;21420;52.196;21.416;2024-01-30T11:05:10;101843.69;;;18.35;61.49
35307;BME280;21420;52.196;21.416;2024-01-30T11:07:41;101838.83;;;18.53;61.36
35307;BME280;21420;52.196;21.416;2024-01-30T11:10:08;101838.52;;;18.38;60.61
35307;BME280;21420;52.196;21.416;2024-01-30T11:12:40;101834.68;;;18.20;60.62
35307;BME280;21420;52.196;21.416;2024-01-30T11:15:15;101834.05;;;18.28;60.77
35307;BME280;21420;52.196;21.416;2024-01-30T11:20:18;101830.45;;;17.90;59.95
35307;BME280;21420;52.196;21.416;2024-01-30T11:22:47;101825.61;;;18.12;60.64
35307;BME280;21420;52.196;21.416;2024-01-30T11:25:15;101823.21;;;18.17;60.04
35307;BME280;21420;52.196;21.416;2024-01-30T11:27:44;101820.21;;;18.04;60.08
35307;BME280;21420;52.196;21.416;2024-01-30T11:30:24;101813.14;;;18.00;59.94
35307;BME280;21420;52.196;21.416;2024-01-30T11:33:13;101812.67;;;17.79;59.51
35307;BME280;21420;52.196;21.416;2024-01-30T11:35:43;101813.25;;;17.82;59.49
35307;BME280;21420;52.196;21.416;2024-01-30T11:38:13;101808.86;;;17.78;59.78
35307;BME280;21420;52.196;21.416;2024-01-30T11:40:40;101808.79;;;18.17;60.54
35307;BME280;21420;52.196;21.416;2024-01-30T11:43:08;101803.64;;;18.31;60.30
35307;BME280;21420;52.196;21.416;2024-01-30T11:45:36;101806.45;;;18.36;59.93
35307;BME280;21420;52.196;21.416;2024-01-30T11:48:03;101801.98;;;18.28;59.66
35307;BME280;21420;52.196;21.416;2024-01-30T11:50:33;101800.55;;;18.34;59.74
35307;BME280;21420;52.196;21.416;2024-01-30T11:53:01;101800.70;;;18.40;59.72
35307;BME280;21420;52.196;21.416;2024-01-30T11:55:38;101800.47;;;18.40;59.70
35307;BME280;21420;52.196;21.416;2024-01-30T11:58:05;101798.39;;;18.42;59.13
35307;BME280;21420;52.196;21.416;2024-01-30T12:00:32;101792.52;;;18.24;58.98
35307;BME280;21420;52.196;21.416;2024-01-30T12:03:07;101789.61;;;18.34;59.42
35307;BME280;21420;52.196;21.416;2024-01-30T12:05:34;101783.52;;;18.55;59.55
35307;BME280;21420;52.196;21.416;2024-01-30T12:08:02;101782.91;;;18.72;59.54
35307;BME280;21420;52.196;21.416;2024-01-30T12:10:29;101785.51;;;18.83;59.50
35307;BME280;21420;52.196;21.416;2024-01-30T12:12:57;101784.65;;;18.87;59.23
35307;BME280;21420;52.196;21.416;2024-01-30T12:15:25;101783.79;;;18.90;59.10
35307;BME280;21420;52.196;21.416;2024-01-30T12:17:52;101780.23;;;19.01;59.58
35307;BME280;21420;52.196;21.416;2024-01-30T12:20:19;101776.05;;;19.39;59.93
35307;BME280;21420;52.196;21.416;2024-01-30T12:22:48;101774.10;;;19.27;58.64
35307;BME280;21420;52.196;21.416;2024-01-30T12:25:16;101778.48;;;18.85;57.89
35307;BME280;21420;52.196;21.416;2024-01-30T12:27:46;101776.33;;;18.29;57.32
35307;BME280;21420;52.196;21.416;2024-01-30T12:30:13;101777.19;;;18.02;57.65
35307;BME280;21420;52.196;21.416;2024-01-30T12:32:45;101777.25;;;17.97;58.21
35307;BME280;21420;52.196;21.416;2024-01-30T12:35:14;101774.23;;;17.88;57.77
35307;BME280;21420;52.196;21.416;2024-01-30T12:37:43;101769.44;;;17.46;57.01
35307;BME280;21420;52.196;21.416;2024-01-30T12:40:11;101766.64;;;17.22;57.57
35307;BME280;21420;52.196;21.416;2024-01-30T12:42:42;101768.99;;;17.34;58.14
35307;BME280;21420;52.196;21.416;2024-01-30T12:45:09;101767.38;;;17.38;58.16